Time;durP1;ratioP1;P1;durP2;ratioP2;P2;SDS_P1;SDS_P2;PMS_P1;PMS_P2;Temp;Humidity;BMP_temperature;BMP_pressure;BME280_temperature;BME280_humidity;BME280_pressure;Samples;Min_cycle;Max_cycle;Signal;HPM_P1;HPM_P2
2023/09/12 00:01:20;;;;;;;22.70;5.43;;;;;;;11.48;90.97;96171.75;6196847;28;20502;-69
2023/09/12 00:04:26;;;;;;;19.40;6.05;;;;;;;11.42;91.11;96167.78;6198098;28;20137;-70
2023/09/12 00:07:32;;;;;;;14.55;5.07;;;;;;;11.43;91.05;96185.25;6197197;28;20050;-68
2023/09/12 00:10:36;;;;;;;17.73;5.43;;;;;;;11.42;90.97;96188.03;6197112;28;20053;-68
2023/09/12 00:13:41;;;;;;;16.10;5.55;;;;;;;11.43;91.25;96189.69;6197503;28;20045;-69
2023/09/12 00:16:43;;;;;;;11.63;5.07;;;;;;;11.47;91.16;96191.16;6196878;28;20050;-69
2023/09/12 00:19:49;;;;;;;15.02;5.20;;;;;;;11.51;91.14;96197.84;6197516;28;20494;-69
2023/09/12 00:22:50;;;;;;;;;;;;;;;11.54;90.92;96208.13;6197301;28;20054;-70
2023/09/12 00:25:53;;;;;;;17.83;5.38;;;;;;;11.46;90.81;96205.25;6197306;28;19921;-69
2023/09/12 00:28:58;;;;;;;10.30;4.72;;;;;;;11.49;91.18;96210.28;6197179;28;20054;-69
2023/09/12 00:32:05;;;;;;;11.65;5.00;;;;;;;11.50;91.14;96205.88;6197165;28;20046;-69
2023/09/12 00:35:07;;;;;;;11.25;4.60;;;;;;;11.60;91.10;96210.28;6194878;28;20618;-68
2023/09/12 00:38:13;;;;;;;13.90;5.07;;;;;;;11.61;90.79;96203.22;6197279;28;20042;-69
2023/09/12 00:41:20;;;;;;;12.77;4.72;;;;;;;11.55;90.21;96208.97;6196471;28;20453;-68
2023/09/12 00:44:24;;;;;;;13.40;5.32;;;;;;;11.52;90.51;96215.34;6197214;28;20050;-70
2023/09/12 00:47:29;;;;;;;9.95;5.43;;;;;;;11.55;90.24;96219.50;6196438;28;20565;-70
2023/09/12 00:50:36;;;;;;;13.07;5.43;;;;;;;11.51;90.29;96218.09;6196858;28;20125;-71
2023/09/12 00:53:40;;;;;;;15.00;6.68;;;;;;;11.56;90.13;96227.31;6196719;28;20046;-69
2023/09/12 00:56:45;;;;;;;13.60;6.72;;;;;;;11.60;89.93;96234.00;6196004;28;20509;-70
2023/09/12 00:59:49;;;;;;;13.90;5.75;;;;;;;11.62;89.67;96241.78;6195900;28;20054;-71
2023/09/12 01:02:53;;;;;;;11.40;6.20;;;;;;;11.55;89.50;96236.19;6196763;28;20050;-71
2023/09/12 01:05:57;;;;;;;;;;;;;;;11.61;89.18;96245.38;6195136;28;20050;-71
2023/09/12 01:08:58;;;;;;;8.77;5.55;;;;;;;11.50;88.99;96238.31;6196052;28;20388;-71
2023/09/12 01:12:03;;;;;;;7.82;5.15;;;;;;;11.60;88.79;96259.50;6196012;28;20054;-69
2023/09/12 01:15:13;;;;;;;8.75;5.35;;;;;;;11.59;88.86;96258.66;6196438;28;20061;-70
2023/09/12 01:18:18;;;;;;;10.70;4.97;;;;;;;11.52;88.98;96257.50;6196381;28;20489;-69
2023/09/12 01:21:57;;;;;;;8.43;5.50;;;;;;;11.53;89.22;96259.16;6195874;28;20042;-70
2023/09/12 01:25:26;;;;;;;8.32;4.82;;;;;;;11.51;89.26;96253.16;6174246;28;20054;-69
2023/09/12 01:28:36;;;;;;;5.93;5.32;;;;;;;11.56;89.33;96264.19;6195673;28;20480;-70
2023/09/12 01:31:45;;;;;;;7.20;4.88;;;;;;;11.54;88.99;96266.09;6195933;28;20042;-70
2023/09/12 01:34:50;;;;;;;6.75;5.43;;;;;;;11.66;88.07;96273.06;6195866;28;20149;-70
2023/09/12 01:37:53;;;;;;;7.95;5.15;;;;;;;11.55;88.56;96278.31;6194429;28;20053;-70
2023/09/12 01:40:55;;;;;;;;;;;;;;;11.53;88.54;96271.50;6195841;28;20050;-70
2023/09/12 01:44:02;;;;;;;6.72;5.40;;;;;;;11.54;88.56;96281.06;6195577;28;20431;-70
2023/09/12 01:47:08;;;;;;;6.97;5.07;;;;;;;11.59;88.16;96278.91;6195854;28;20490;-70
2023/09/12 01:50:16;;;;;;;6.97;4.93;;;;;;;11.64;88.20;96290.78;6195677;28;20038;-70
2023/09/12 01:53:19;;;;;;;7.32;4.60;;;;;;;11.61;88.25;96288.38;6195102;28;20497;-70
2023/09/12 01:56:24;;;;;;;9.40;5.30;;;;;;;11.59;88.34;96285.03;6195700;28;20050;-70
2023/09/12 01:59:29;;;;;;;6.72;5.15;;;;;;;11.58;88.26;96288.63;6195486;28;20046;-70
2023/09/12 02:02:30;;;;;;;7.33;4.53;;;;;;;11.64;87.91;96288.13;6195082;28;20086;-70
2023/09/12 02:05:32;;;;;;;9.48;5.55;;;;;;;11.66;87.74;96307.31;6195274;28;20053;-70
2023/09/12 02:08:33;;;;;;;7.65;4.95;;;;;;;11.68;87.79;96305.38;6198226;28;20042;-70
2023/09/12 02:11:37;;;;;;;10.52;4.93;;;;;;;11.66;87.53;96307.31;6200107;28;20046;-71
2023/09/12 02:14:43;;;;;;;9.52;5.05;;;;;;;11.66;87.63;96309.94;6199079;28;20047;-70
2023/09/12 02:17:45;;;;;;;7.65;4.60;;;;;;;11.64;87.47;96318.94;6199852;28;20537;-71
2023/09/12 02:21:08;;;;;;;7.43;4.77;;;;;;;11.66;87.10;96323.13;6199065;28;20077;-69
2023/09/12 02:24:13;;;;;;;5.88;4.05;;;;;;;11.65;87.57;96331.97;6199916;28;20046;-69
2023/09/12 02:27:14;;;;;;;5.32;4.28;;;;;;;11.67;87.40;96330.06;6199360;28;20533;-69
2023/09/12 02:30:16;;;;;;;6.43;4.85;;;;;;;11.67;87.06;96335.34;6199147;28;20053;-69
2023/09/12 02:33:21;;;;;;;7.20;4.47;;;;;;;11.75;86.78;96337.38;6199737;28;20054;-69
2023/09/12 02:36:24;;;;;;;8.35;4.68;;;;;;;11.75;86.39;96341.78;6199622;28;20428;-69
2023/09/12 02:39:26;;;;;;;4.95;4.10;;;;;;;11.78;86.34;96352.13;6198458;28;20061;-69
2023/09/12 02:42:30;;;;;;;5.80;4.00;;;;;;;11.79;86.05;96359.06;6199407;28;20465;-69
2023/09/12 02:45:34;;;;;;;5.97;3.92;;;;;;;11.81;86.02;96363.25;6198682;28;20137;-69
2023/09/12 02:48:41;;;;;;;6.57;3.85;;;;;;;11.86;85.34;96366.41;6197746;28;20046;-68
2023/09/12 02:51:45;;;;;;;5.10;4.28;;;;;;;11.87;85.11;96369.88;6198898;28;20049;-68
2023/09/12 02:54:54;;;;;;;4.75;4.15;;;;;;;11.81;85.39;96375.59;6199016;28;20415;-68
2023/09/12 02:57:58;;;;;;;6.97;4.38;;;;;;;11.86;85.11;96370.81;6199000;28;20046;-69
2023/09/12 03:01:03;;;;;;;5.60;3.83;;;;;;;11.90;84.02;96373.09;6198628;28;20050;-69
2023/09/12 03:04:07;;;;;;;5.82;3.78;;;;;;;11.87;84.38;96378.63;6196440;28;20145;-69
2023/09/12 03:07:08;;;;;;;4.72;4.20;;;;;;;11.90;84.20;96377.53;6198684;28;20509;-68
2023/09/12 03:10:15;;;;;;;5.53;3.92;;;;;;;11.89;83.57;96375.88;6198577;28;20034;-69
2023/09/12 03:13:22;;;;;;;5.72;4.07;;;;;;;11.91;83.79;96373.94;6198210;28;20053;-69
2023/09/12 03:16:24;;;;;;;5.82;3.75;;;;;;;11.97;83.03;96384.00;6198182;28;20057;-68
2023/09/12 03:19:29;;;;;;;5.25;4.38;;;;;;;12.03;82.52;96388.81;6197017;28;20047;-68
2023/09/12 03:22:32;;;;;;;4.35;3.95;;;;;;;12.04;82.26;96394.94;6197734;28;20506;-69
2023/09/12 03:25:37;;;;;;;4.30;3.40;;;;;;;12.09;82.29;96396.25;6198396;28;20082;-69
2023/09/12 03:28:42;;;;;;;6.97;4.35;;;;;;;12.23;81.71;96404.84;6197961;28;20050;-68
2023/09/12 03:31:46;;;;;;;4.40;3.78;;;;;;;12.23;81.15;96420.69;6197676;28;20054;-69
2023/09/12 03:34:50;;;;;;;;;;;;;;;12.29;80.78;96412.31;6198742;28;20425;-69
2023/09/12 03:37:56;;;;;;;4.70;3.95;;;;;;;12.31;80.41;96424.41;6198777;28;19921;-68
2023/09/12 03:41:00;;;;;;;6.93;3.88;;;;;;;12.36;79.34;96426.66;6197236;28;20556;-69
2023/09/12 03:44:06;;;;;;;4.72;4.20;;;;;;;12.42;79.12;96436.72;6198125;28;20125;-68
2023/09/12 03:47:13;;;;;;;3.20;2.88;;;;;;;12.44;79.49;96434.81;6196614;28;20054;-69
2023/09/12 03:50:15;;;;;;;7.30;3.45;;;;;;;12.65;78.33;96441.97;6197594;28;20078;-69
2023/09/12 03:53:16;;;;;;;4.50;3.78;;;;;;;12.69;77.78;96443.44;6198460;28;20069;-68
2023/09/12 03:56:19;;;;;;;4.50;3.78;;;;;;;12.82;77.65;96444.09;6198690;28;20070;-68
2023/09/12 03:59:23;;;;;;;4.53;3.53;;;;;;;12.91;77.31;96453.94;6199237;28;20058;-69
2023/09/12 04:02:24;;;;;;;6.43;4.97;;;;;;;12.96;76.47;96457.03;6199748;28;20034;-69
2023/09/12 04:05:28;;;;;;;12.48;7.10;;;;;;;13.08;76.09;96464.91;6198884;28;20054;-69
2023/09/12 04:08:32;;;;;;;6.30;4.25;;;;;;;13.19;74.61;96462.25;6199328;28;20038;-69
2023/09/12 04:11:36;;;;;;;3.83;2.65;;;;;;;13.23;74.73;96466.31;6199100;28;20042;-68
2023/09/12 04:14:38;;;;;;;4.30;3.22;;;;;;;13.40;73.81;96484.31;6197867;28;20046;-69
2023/09/12 04:17:42;;;;;;;5.60;3.22;;;;;;;13.38;73.46;96488.88;6179649;28;20061;-70
2023/09/12 04:20:44;;;;;;;4.53;2.65;;;;;;;13.36;72.98;96480.25;6197068;28;20050;-68
2023/09/12 04:23:50;;;;;;;;;;;;;;;13.44;73.03;96488.34;6197532;28;20046;-68
2023/09/12 04:26:53;;;;;;;3.63;2.65;;;;;;;13.41;73.16;96487.78;6196952;28;20027;-68
2023/09/12 04:29:57;;;;;;;3.15;2.47;;;;;;;13.41;72.85;96490.41;6196862;28;20050;-68
2023/09/12 04:33:03;;;;;;;3.28;2.97;;;;;;;13.52;72.48;96493.00;6196150;28;20268;-69
2023/09/12 04:36:04;;;;;;;3.20;2.75;;;;;;;13.73;71.83;96497.47;6196965;28;20038;-68
2023/09/12 04:39:06;;;;;;;3.45;2.90;;;;;;;13.89;71.08;96506.66;6195830;28;20505;-69
2023/09/12 04:42:09;;;;;;;7.97;3.28;;;;;;;14.08;70.18;96519.16;6196827;28;20038;-69
2023/09/12 04:45:13;;;;;;;7.18;2.95;;;;;;;14.21;69.39;96518.13;6196587;28;20054;-68
2023/09/12 04:48:17;;;;;;;4.88;3.30;;;;;;;14.37;68.97;96524.63;6196107;28;20073;-69
2023/09/12 04:51:18;;;;;;;4.18;2.72;;;;;;;14.53;68.23;96533.94;6196383;28;20142;-68
2023/09/12 04:54:22;;;;;;;4.60;2.85;;;;;;;14.52;67.74;96529.59;6196294;28;20053;-68
2023/09/12 04:57:30;;;;;;;3.88;2.78;;;;;;;14.53;67.66;96529.47;6196264;28;20050;-68
2023/09/12 05:00:34;;;;;;;3.58;2.65;;;;;;;14.71;67.10;96537.63;6195743;28;20205;-68
2023/09/12 05:03:38;;;;;;;3.60;3.08;;;;;;;14.80;66.56;96542.16;6196026;28;20140;-69
2023/09/12 05:06:40;;;;;;;3.70;2.92;;;;;;;14.96;65.96;96546.09;6195355;28;20463;-69
2023/09/12 05:09:43;;;;;;;;;;;;;;;15.05;64.97;96545.28;6196869;28;20042;-67
2023/09/12 05:12:45;;;;;;;4.30;2.85;;;;;;;14.99;65.12;96548.47;6196349;28;20403;-70
2023/09/12 05:15:48;;;;;;;4.75;3.00;;;;;;;15.11;64.17;96543.91;6196192;28;20562;-69
2023/09/12 05:18:54;;;;;;;4.60;2.22;;;;;;;15.06;64.12;96552.28;6195798;28;20153;-69
2023/09/12 05:21:58;;;;;;;3.65;2.83;;;;;;;15.48;63.42;96552.06;6196195;28;20038;-68
2023/09/12 05:25:02;;;;;;;7.35;2.72;;;;;;;15.78;61.67;96555.63;6196095;28;20050;-68
2023/09/12 05:28:07;;;;;;;4.40;3.10;;;;;;;15.88;61.51;96559.09;6196231;28;20046;-68
2023/09/12 05:31:09;;;;;;;7.05;3.50;;;;;;;15.87;61.26;96558.25;6194683;28;20069;-69
2023/09/12 05:34:13;;;;;;;5.15;2.55;;;;;;;15.98;61.21;96570.53;6194671;28;20042;-69
2023/09/12 05:37:15;;;;;;;5.00;3.75;;;;;;;16.36;60.26;96571.47;6195343;28;20046;-69
2023/09/12 05:40:17;;;;;;;5.47;4.57;;;;;;;16.91;59.61;96578.78;6194076;28;20513;-68
2023/09/12 05:43:19;;;;;;;5.97;3.65;;;;;;;18.57;55.74;96563.28;6194555;28;20045;-69
2023/09/12 05:46:22;;;;;;;;;;;;;;;20.52;53.94;96580.91;6195909;28;20066;-69
2023/09/12 05:49:28;;;;;;;5.17;2.90;;;;;;;21.49;47.97;96568.31;6195518;28;19926;-69
2023/09/12 05:52:32;;;;;;;6.22;3.05;;;;;;;21.76;45.44;96582.19;6195268;28;20498;-68
2023/09/12 05:55:40;;;;;;;6.25;3.25;;;;;;;23.06;43.29;96590.22;6195318;28;20050;-69
2023/09/12 05:58:47;;;;;;;6.55;3.38;;;;;;;24.12;41.15;96602.31;6195128;28;20498;-69
2023/09/12 06:01:56;;;;;;;3.85;2.40;;;;;;;25.85;37.38;96598.19;6193300;28;20132;-68
2023/09/12 06:05:00;;;;;;;3.00;1.95;;;;;;;25.82;37.00;96603.09;6194630;28;20153;-69
2023/09/12 06:08:04;;;;;;;2.67;1.77;;;;;;;26.88;35.42;96614.13;6195150;28;20058;-68
2023/09/12 06:11:08;;;;;;;3.90;2.25;;;;;;;27.48;34.82;96614.03;6195275;28;20046;-69
2023/09/12 06:14:09;;;;;;;3.95;2.38;;;;;;;28.74;32.26;96612.59;6194853;28;20049;-68
2023/09/12 06:17:18;;;;;;;4.53;2.25;;;;;;;30.37;30.10;96614.78;6195153;28;20042;-68
2023/09/12 06:20:23;;;;;;;4.43;2.80;;;;;;;32.57;27.34;96614.28;6195045;28;20046;-68
2023/09/12 06:23:30;;;;;;;7.60;3.00;;;;;;;33.29;25.62;96610.00;6195111;28;20485;-68
2023/09/12 06:26:34;;;;;;;3.58;2.38;;;;;;;34.20;24.56;96615.06;6194995;28;20061;-69
2023/09/12 06:29:36;;;;;;;5.37;2.97;;;;;;;35.14;23.84;96607.50;6194409;28;20042;-68
2023/09/12 06:32:40;;;;;;;6.15;2.90;;;;;;;36.75;22.02;96610.38;6195207;28;20046;-69
2023/09/12 06:35:49;;;;;;;7.45;2.63;;;;;;;36.99;20.53;96607.91;6195253;28;20501;-68
2023/09/12 06:38:51;;;;;;;2.95;2.03;;;;;;;36.34;21.84;96614.94;6194711;28;20054;-68
2023/09/12 06:41:52;;;;;;;2.95;2.42;;;;;;;36.42;21.40;96611.69;6194197;28;20043;-69
2023/09/12 06:44:56;;;;;;;8.68;4.43;;;;;;;36.47;20.46;96614.44;6194532;28;20559;-69
2023/09/12 06:47:58;;;;;;;6.05;2.42;;;;;;;37.26;20.22;96621.38;6194448;28;20089;-68
2023/09/12 06:51:08;;;;;;;4.43;2.45;;;;;;;37.71;19.51;96627.06;6195065;28;20421;-68
2023/09/12 06:54:10;;;;;;;5.35;3.63;;;;;;;37.21;19.26;96620.56;6195550;28;20061;-68
2023/09/12 06:57:12;;;;;;;6.18;2.67;;;;;;;39.10;18.21;96636.22;6199333;28;20070;-69
2023/09/12 07:00:14;;;;;;;6.82;4.78;;;;;;;40.13;17.37;96639.56;6199235;28;20045;-68
2023/09/12 07:03:21;;;;;;;7.50;2.80;;;;;;;39.32;18.02;96633.00;6199147;28;20489;-69
2023/09/12 07:06:26;;;;;;;5.75;2.35;;;;;;;38.21;17.96;96630.72;6198806;28;20410;-69
2023/09/12 07:09:27;;;;;;;3.97;2.63;;;;;;;35.72;19.92;96631.13;6198556;28;20050;-68
2023/09/12 07:12:29;;;;;;;4.47;2.70;;;;;;;33.02;22.58;96624.34;6198892;28;20053;-70
2023/09/12 07:15:38;;;;;;;3.83;2.30;;;;;;;31.09;24.48;96624.75;6197977;28;20069;-69
2023/09/12 07:18:42;;;;;;;4.55;2.05;;;;;;;30.34;25.80;96628.81;6198755;28;20414;-69
2023/09/12 07:21:46;;;;;;;2.45;2.22;;;;;;;30.79;24.83;96628.38;6197725;28;20057;-68
2023/09/12 07:24:48;;;;;;;6.07;2.90;;;;;;;31.64;23.06;96631.72;6198319;28;20034;-68
2023/09/12 07:27:52;;;;;;;4.15;2.55;;;;;;;32.03;22.66;96645.63;6198530;28;20042;-69
2023/09/12 07:30:57;;;;;;;4.85;2.20;;;;;;;34.25;20.14;96649.78;6198390;28;20054;-69
2023/09/12 07:33:58;;;;;;;4.57;1.67;;;;;;;35.74;18.01;96653.56;6197805;28;20061;-69
2023/09/12 07:37:04;;;;;;;5.47;1.60;;;;;;;36.24;17.39;96665.06;6197599;28;20055;-68
2023/09/12 07:40:09;;;;;;;1.92;1.40;;;;;;;37.16;16.79;96664.44;6196809;28;20101;-68
2023/09/12 07:43:15;;;;;;;2.47;1.55;;;;;;;37.91;16.27;96665.44;6198047;28;20046;-68
2023/09/12 07:46:17;;;;;;;3.40;1.90;;;;;;;38.26;16.05;96663.66;6197836;28;20073;-67
2023/09/12 07:49:19;;;;;;;5.07;3.33;;;;;;;37.73;16.44;96664.09;6195632;28;20045;-69
2023/09/12 07:52:23;;;;;;;4.47;3.00;;;;;;;36.41;16.96;96660.19;6197244;28;20061;-69
2023/09/12 07:55:30;;;;;;;3.67;2.47;;;;;;;36.53;17.02;96657.22;6197788;28;20042;-68
2023/09/12 07:58:34;;;;;;;4.03;2.70;;;;;;;35.65;18.24;96641.50;6197331;28;20153;-68
2023/09/12 08:01:38;;;;;;;4.15;2.15;;;;;;;33.71;19.38;96645.00;6197805;28;20137;-69
2023/09/12 08:04:42;;;;;;;6.93;2.60;;;;;;;31.57;21.34;96642.75;6197540;28;20042;-67
2023/09/12 08:07:47;;;;;;;5.70;2.90;;;;;;;29.65;23.20;96635.53;6198981;28;20135;-69
2023/09/12 08:10:53;;;;;;;2.38;1.58;;;;;;;29.24;22.45;96639.66;6197897;28;20405;-69
2023/09/12 08:14:01;;;;;;;4.78;2.35;;;;;;;31.36;20.80;96641.44;6197261;28;20053;-69
2023/09/12 08:17:07;;;;;;;4.20;2.60;;;;;;;34.31;17.65;96655.06;6197322;28;20038;-69
2023/09/12 08:20:12;;;;;;;1.45;1.20;;;;;;;36.92;15.91;96659.47;6197254;28;20050;-69
2023/09/12 08:23:15;;;;;;;3.15;1.35;;;;;;;37.78;15.25;96677.00;6197064;28;20510;-68
2023/09/12 08:26:16;;;;;;;3.47;1.65;;;;;;;37.77;15.44;96680.03;6196686;28;20146;-68
2023/09/12 08:29:17;;;;;;;3.53;2.47;;;;;;;39.41;14.15;96691.03;6196878;28;20510;-68
2023/09/12 08:32:22;;;;;;;5.40;3.00;;;;;;;37.03;15.97;96682.28;6194821;28;20140;-68
2023/09/12 08:35:26;;;;;;;4.82;2.88;;;;;;;33.32;18.62;96680.44;6197171;28;20533;-69
2023/09/12 08:38:28;;;;;;;4.60;2.90;;;;;;;30.01;21.53;96666.38;6196843;28;20053;-69
2023/09/12 08:41:36;;;;;;;4.00;2.42;;;;;;;30.40;21.23;96671.34;6196834;28;20038;-69
2023/09/12 08:44:44;;;;;;;3.60;1.90;;;;;;;33.75;17.47;96684.34;6196535;28;20057;-69
2023/09/12 08:47:53;;;;;;;3.10;1.35;;;;;;;35.78;15.22;96696.84;6196456;28;20129;-67
2023/09/12 08:51:03;;;;;;;2.42;1.50;;;;;;;38.41;14.35;96702.09;6196429;28;20509;-69
2023/09/12 08:54:05;;;;;;;6.95;4.22;;;;;;;41.18;13.04;96707.66;6195480;28;20098;-69
2023/09/12 08:57:10;;;;;;;4.47;1.80;;;;;;;43.19;11.76;96729.22;6195621;28;20049;-69
2023/09/12 09:00:17;;;;;;;3.67;1.50;;;;;;;44.24;11.03;96729.88;6196358;28;20421;-68
2023/09/12 09:03:23;;;;;;;3.72;2.90;;;;;;;44.92;10.91;96734.00;6196498;28;20072;-68
2023/09/12 09:06:30;;;;;;;4.85;2.72;;;;;;;41.61;12.02;96724.09;6195179;28;20054;-68
2023/09/12 09:09:32;;;;;;;4.32;2.03;;;;;;;36.61;14.80;96711.50;6195550;28;20057;-68
2023/09/12 09:12:42;;;;;;;2.15;1.60;;;;;;;32.80;18.27;96703.22;6196057;28;20038;-68
2023/09/12 09:15:47;;;;;;;3.08;1.50;;;;;;;30.57;20.10;96697.84;6195640;28;20070;-68
2023/09/12 09:19:10;;;;;;;2.67;1.80;;;;;;;28.51;21.60;96673.56;6195047;28;20046;-68
2023/09/12 09:22:14;;;;;;;4.55;2.78;;;;;;;29.21;21.99;96699.72;6196081;28;20042;-68
2023/09/12 09:25:19;;;;;;;2.72;2.05;;;;;;;32.93;18.38;96710.28;6195808;28;20069;-70
2023/09/12 09:28:26;;;;;;;4.65;2.00;;;;;;;34.70;16.84;96712.31;6195897;28;20039;-69
2023/09/12 09:31:32;;;;;;;3.35;2.40;;;;;;;32.82;17.92;96709.25;6196099;28;20054;-69
2023/09/12 09:34:39;;;;;;;5.57;3.00;;;;;;;30.03;20.23;96708.50;6195632;28;20054;-68
2023/09/12 09:37:42;;;;;;;3.85;2.45;;;;;;;28.02;22.75;96704.75;6195021;28;20133;-69
2023/09/12 09:40:45;;;;;;;5.90;2.67;;;;;;;26.29;24.52;96702.00;6195748;28;20042;-69
2023/09/12 09:43:55;;;;;;;4.13;2.20;;;;;;;24.85;26.60;96715.16;6195695;28;20046;-70
2023/09/12 09:47:04;;;;;;;4.22;2.60;;;;;;;24.63;27.50;96720.56;6195357;28;20519;-70
2023/09/12 09:50:08;;;;;;;4.65;2.88;;;;;;;26.41;25.64;96731.94;6195473;28;20494;-68
2023/09/12 09:53:10;;;;;;;5.00;2.00;;;;;;;28.38;23.23;96725.03;6194710;28;20073;-69
2023/09/12 09:56:17;;;;;;;2.90;1.90;;;;;;;31.86;19.74;96733.41;6195056;28;20042;-69
2023/09/12 09:59:27;;;;;;;3.33;2.08;;;;;;;33.14;18.63;96732.47;6195535;28;20050;-69
2023/09/12 10:02:39;;;;;;;8.35;1.90;;;;;;;35.27;16.87;96755.56;6195719;28;20038;-69
2023/09/12 10:05:48;;;;;;;5.30;2.25;;;;;;;36.71;15.61;96760.03;6195424;28;20046;-68
2023/09/12 10:08:53;;;;;;;3.42;1.88;;;;;;;35.23;16.72;96754.44;6194771;28;20426;-68
2023/09/12 10:11:58;;;;;;;5.88;2.13;;;;;;;31.68;19.55;96741.72;6195376;28;20050;-69
2023/09/12 10:15:04;;;;;;;2.15;1.80;;;;;;;28.28;22.66;96743.56;6195184;28;20056;-69
2023/09/12 10:18:13;;;;;;;4.50;2.15;;;;;;;26.27;25.08;96731.09;6195064;28;20046;-70
2023/09/12 10:21:34;;;;;;;3.35;2.38;;;;;;;26.42;24.84;96729.03;6193949;28;20046;-69
2023/09/12 10:24:39;;;;;;;4.18;2.78;;;;;;;26.72;24.43;96744.91;6193201;28;20081;-70
2023/09/12 10:27:46;;;;;;;4.45;2.45;;;;;;;25.50;25.46;96745.53;6194891;28;20076;-69
2023/09/12 10:30:53;;;;;;;6.85;3.35;;;;;;;24.37;27.64;96752.50;6198446;28;20046;-71
2023/09/12 10:34:00;;;;;;;6.22;3.83;;;;;;;23.72;28.99;96746.94;6199896;28;20141;-69
2023/09/12 10:37:04;;;;;;;11.68;5.47;;;;;;;23.31;29.31;96754.53;6198755;28;20050;-69
2023/09/12 10:40:08;;;;;;;3.65;2.80;;;;;;;22.78;30.15;96759.78;6199392;28;20049;-69
2023/09/12 10:43:14;;;;;;;5.50;3.22;;;;;;;23.06;29.31;96764.66;6198838;28;20050;-69
2023/09/12 10:46:21;;;;;;;7.47;2.75;;;;;;;26.18;25.57;96776.28;6199308;28;20314;-69
2023/09/12 10:49:25;;;;;;;4.38;2.33;;;;;;;26.37;25.20;96769.28;6199073;28;20057;-69
2023/09/12 10:52:32;;;;;;;5.07;2.83;;;;;;;24.83;26.63;96771.06;6199058;28;20498;-69
2023/09/12 10:55:34;;;;;;;6.63;3.40;;;;;;;23.39;28.59;96777.78;6199060;28;20452;-69
2023/09/12 10:59:06;;;;;;;5.05;3.08;;;;;;;22.67;29.83;96778.16;6197431;28;20169;-69
2023/09/12 11:02:31;;;;;;;5.22;2.40;;;;;;;22.33;31.05;96777.50;6197783;28;20042;-69
2023/09/12 11:05:50;;;;;;;6.75;2.22;;;;;;;22.11;30.82;96794.34;6199145;28;20046;-68
2023/09/12 11:09:13;;;;;;;4.93;2.47;;;;;;;21.97;31.07;96796.72;6198811;28;20096;-69
2023/09/12 11:12:34;;;;;;;4.00;2.47;;;;;;;21.87;31.69;96793.41;6198400;28;20054;-69
2023/09/12 11:15:39;;;;;;;8.48;2.70;;;;;;;21.77;31.66;96803.50;6198664;28;20049;-69
2023/09/12 11:19:14;;;;;;;6.65;3.13;;;;;;;22.86;30.99;96810.72;6198711;28;20054;-69
2023/09/12 11:22:30;;;;;;;4.45;2.40;;;;;;;24.96;27.88;96814.22;6196769;28;20046;-69
2023/09/12 11:25:33;;;;;;;4.07;2.50;;;;;;;25.29;27.46;96813.75;6197840;28;20050;-69
2023/09/12 11:28:35;;;;;;;3.15;2.22;;;;;;;25.27;27.51;96811.25;6196370;28;20046;-69
2023/09/12 11:31:42;;;;;;;4.78;2.35;;;;;;;24.12;28.60;96811.97;6197043;28;20411;-69
2023/09/12 11:34:48;;;;;;;8.45;2.95;;;;;;;22.97;30.29;96817.53;6197956;28;20050;-68
2023/09/12 11:37:57;;;;;;;4.78;2.45;;;;;;;22.32;31.34;96818.72;6198088;28;20133;-69
2023/09/12 11:41:01;;;;;;;4.10;2.33;;;;;;;22.47;31.46;96821.50;6197684;28;20533;-70
2023/09/12 11:44:09;;;;;;;4.22;2.20;;;;;;;24.01;29.64;96830.44;6198009;28;20038;-69
2023/09/12 11:47:16;;;;;;;3.47;2.05;;;;;;;23.82;29.98;96823.72;6197822;28;20058;-70
2023/09/12 11:50:29;;;;;;;4.72;2.45;;;;;;;22.82;30.97;96830.03;6196315;28;20061;-69
2023/09/12 11:53:35;;;;;;;4.03;2.67;;;;;;;22.54;31.51;96829.69;6197357;28;20054;-70
2023/09/12 11:56:39;;;;;;;5.03;2.78;;;;;;;23.86;29.42;96835.78;6197651;28;20457;-70
2023/09/12 11:59:51;;;;;;;3.22;2.50;;;;;;;24.83;28.02;96846.41;6196279;28;20580;-70
2023/09/12 12:02:54;;;;;;;4.03;2.65;;;;;;;24.84;27.93;96842.69;6197720;28;20047;-70
2023/09/12 12:05:58;;;;;;;5.28;3.72;;;;;;;24.40;27.97;96840.88;6197522;28;20144;-69
2023/09/12 12:09:02;;;;;;;7.13;3.10;;;;;;;23.65;29.06;96837.28;6197716;28;20045;-69
2023/09/12 12:12:14;;;;;;;3.13;2.50;;;;;;;22.61;30.23;96849.41;6197778;28;20039;-69
2023/09/12 12:15:15;;;;;;;4.18;2.13;;;;;;;21.55;31.91;96847.03;6197364;28;20050;-70
2023/09/12 12:18:17;;;;;;;3.50;1.73;;;;;;;20.80;33.30;96853.28;6197093;28;20038;-69
2023/09/12 12:21:21;;;;;;;6.95;2.90;;;;;;;20.45;34.42;96865.88;6196934;28;20101;-69
2023/09/12 12:24:36;;;;;;;6.82;2.60;;;;;;;20.38;34.82;96862.16;6196987;28;20564;-70
2023/09/12 12:27:40;;;;;;;4.35;2.13;;;;;;;20.36;35.12;96861.50;6195790;28;20042;-69
2023/09/12 12:30:50;;;;;;;4.45;3.00;;;;;;;20.28;35.42;96859.63;6197436;28;20046;-69
2023/09/12 12:33:54;;;;;;;3.53;2.20;;;;;;;20.06;36.02;96861.00;6195982;28;20051;-69
2023/09/12 12:37:04;;;;;;;3.95;2.13;;;;;;;20.28;36.02;96870.31;6195605;28;20410;-69
2023/09/12 12:40:06;;;;;;;4.55;2.50;;;;;;;20.42;35.52;96867.03;6196088;28;20046;-70
2023/09/12 12:43:19;;;;;;;7.70;2.70;;;;;;;20.26;35.29;96880.31;6196671;28;20133;-70
2023/09/12 12:46:23;;;;;;;5.88;2.60;;;;;;;20.01;36.17;96879.34;6196183;28;20330;-70
2023/09/12 12:49:24;;;;;;;5.53;2.90;;;;;;;19.90;36.86;96882.28;6196364;28;20049;-69
2023/09/12 12:52:30;;;;;;;4.93;2.70;;;;;;;19.79;36.75;96880.72;6194577;28;20054;-71
2023/09/12 12:55:35;;;;;;;12.85;8.65;;;;;;;19.68;37.43;96884.50;6195683;28;20074;-69
2023/09/12 12:58:36;;;;;;;5.90;3.38;;;;;;;19.68;37.43;96870.31;6196542;28;20494;-70
2023/09/12 13:01:39;;;;;;;6.97;2.80;;;;;;;19.81;36.70;96883.22;6196248;28;20433;-69
2023/09/12 13:04:41;;;;;;;2.78;2.00;;;;;;;19.61;36.39;96885.22;6196195;28;20164;-70
2023/09/12 13:07:42;;;;;;;2.85;2.40;;;;;;;19.35;37.09;96883.34;6197410;28;20046;-72
2023/09/12 13:10:46;;;;;;;3.78;2.35;;;;;;;19.15;37.67;96888.03;6198399;28;20134;-71
2023/09/12 13:13:50;;;;;;;5.70;2.95;;;;;;;18.85;38.12;96889.22;6197137;28;20057;-70
2023/09/12 13:16:54;;;;;;;5.47;2.75;;;;;;;18.69;38.58;96887.19;6197248;28;20039;-70
2023/09/12 13:19:57;;;;;;;4.70;3.20;;;;;;;18.89;38.06;96897.78;6196410;28;20054;-69
2023/09/12 13:23:01;;;;;;;5.95;3.42;;;;;;;19.20;37.46;96901.75;6195921;28;20049;-69
2023/09/12 13:26:08;;;;;;;4.05;3.15;;;;;;;19.31;37.32;96905.19;6195870;28;20062;-69
2023/09/12 13:29:10;;;;;;;4.75;2.53;;;;;;;19.02;37.68;96904.41;6194450;28;20045;-68
2023/09/12 13:32:16;;;;;;;4.57;3.05;;;;;;;18.82;38.39;96909.03;6195902;28;20558;-70
2023/09/12 13:35:17;;;;;;;6.57;2.97;;;;;;;18.52;39.25;96907.47;6193769;28;20058;-69
2023/09/12 13:38:19;;;;;;;8.30;4.03;;;;;;;18.33;39.47;96908.41;6195244;28;20426;-70
2023/09/12 13:41:24;;;;;;;7.38;3.92;;;;;;;18.22;40.24;96916.59;6195536;28;20038;-70
2023/09/12 13:44:26;;;;;;;7.28;4.28;;;;;;;18.01;40.85;96905.31;6195248;28;20042;-69
2023/09/12 13:47:33;;;;;;;5.57;3.35;;;;;;;17.97;40.98;96917.22;6195287;28;20501;-68
2023/09/12 13:50:36;;;;;;;6.15;2.67;;;;;;;17.82;40.87;96920.34;6193707;28;20054;-69
2023/09/12 13:53:39;;;;;;;5.22;2.92;;;;;;;17.60;40.85;96920.63;6194993;28;20046;-71
2023/09/12 13:56:41;;;;;;;6.57;3.40;;;;;;;17.50;40.91;96932.13;6193227;28;20504;-69
2023/09/12 13:59:48;;;;;;;5.38;3.17;;;;;;;17.24;41.28;96913.25;6195162;28;20042;-70
2023/09/12 14:02:56;;;;;;;3.53;2.47;;;;;;;17.20;41.80;96938.41;6195733;28;20038;-71
2023/09/12 14:06:00;;;;;;;9.25;5.68;;;;;;;17.13;41.72;96944.44;6200262;28;20042;-70
2023/09/12 14:09:04;;;;;;;8.70;4.55;;;;;;;17.09;41.99;96948.34;6200261;28;20406;-69
2023/09/12 14:12:06;;;;;;;5.68;3.60;;;;;;;16.95;42.49;96939.78;6199756;28;20046;-69
2023/09/12 14:15:07;;;;;;;6.32;3.85;;;;;;;16.91;43.10;96951.69;6199550;28;20046;-69
2023/09/12 14:18:12;;;;;;;6.38;3.38;;;;;;;16.88;43.22;96956.44;6199782;28;20061;-69
2023/09/12 14:21:18;;;;;;;6.10;3.28;;;;;;;16.82;43.69;96963.13;6198654;28;20501;-69
2023/09/12 14:24:19;;;;;;;10.98;4.05;;;;;;;16.70;43.55;96965.03;6199767;28;20497;-69
2023/09/12 14:27:21;;;;;;;6.30;3.63;;;;;;;16.67;43.88;96975.06;6200029;28;20064;-69
2023/09/12 14:30:22;;;;;;;8.88;4.28;;;;;;;16.63;44.11;96973.69;6199966;28;20050;-69
2023/09/12 14:33:28;;;;;;;9.88;4.53;;;;;;;16.55;44.08;96977.00;6199655;28;20058;-69